SFY1TM EGBJ-EGBJ
Flight info
| Callsign | SFY1TM |
|---|---|
| Flight time | N/A |
| Altitude | 8000 |
| Route | BADIM DCT ICCIN DCT CDF DCT GST |
| Aircraft | DA42/L-SBDGRY/S |
Departure
| Time | 2026-05-08 14:49 |
|---|---|
| Airport | Gloucestershire Airport (EGBJ) |
Arrival
| Time | N/A |
|---|---|
| Airport | Gloucestershire Airport (EGBJ) |
| Time | Latitude | Longitude | Altitude | Speed | Heading |
|---|---|---|---|---|---|
| 2026-05-08 14:44 | 51.88927 | -2.16362 | 88 ft | 0 kts | 304° |
| 2026-05-08 14:46 | 51.88946 | -2.16372 | 88 ft | 9 kts | 355° |
| 2026-05-08 14:47 | 51.89031 | -2.16384 | 88 ft | 9 kts | 9° |
| 2026-05-08 14:47 | 51.89082 | -2.16312 | 88 ft | 10 kts | 37° |
| 2026-05-08 14:47 | 51.89146 | -2.16244 | 88 ft | 11 kts | 31° |
| 2026-05-08 14:47 | 51.89218 | -2.16164 | 88 ft | 13 kts | 34° |
| 2026-05-08 14:48 | 51.89299 | -2.16069 | 88 ft | 15 kts | 36° |
| 2026-05-08 14:48 | 51.89389 | -2.15969 | 88 ft | 16 kts | 37° |
| 2026-05-08 14:48 | 51.89455 | -2.16004 | 88 ft | 9 kts | 265° |
| 2026-05-08 14:48 | 51.89445 | -2.16159 | 88 ft | 48 kts | 261° |
| 2026-05-08 14:49 | 51.89386 | -2.17053 | 100 ft | 100 kts | 262° |
| 2026-05-08 14:49 | 51.89312 | -2.18180 | 403 ft | 103 kts | 257° |
| 2026-05-08 14:49 | 51.89227 | -2.19341 | 733 ft | 108 kts | 264° |
| 2026-05-08 14:49 | 51.89205 | -2.20564 | 1116 ft | 106 kts | 253° |
| 2026-05-08 14:50 | 51.88849 | -2.21544 | 1444 ft | 101 kts | 222° |
| 2026-05-08 14:50 | 51.88363 | -2.22338 | 1761 ft | 101 kts | 216° |
| 2026-05-08 14:50 | 51.87837 | -2.23085 | 2088 ft | 101 kts | 214° |
| 2026-05-08 14:50 | 51.87292 | -2.23806 | 2422 ft | 100 kts | 212° |
| 2026-05-08 14:51 | 51.86749 | -2.24493 | 2748 ft | 100 kts | 212° |
| 2026-05-08 14:51 | 51.86199 | -2.25171 | 3071 ft | 100 kts | 211° |
| 2026-05-08 14:51 | 51.85646 | -2.25843 | 3391 ft | 101 kts | 211° |
| 2026-05-08 14:51 | 51.85086 | -2.26518 | 3713 ft | 101 kts | 211° |
| 2026-05-08 14:52 | 51.84522 | -2.27193 | 4029 ft | 102 kts | 211° |
| 2026-05-08 14:52 | 51.83390 | -2.28547 | 4671 ft | 102 kts | 211° |
| 2026-05-08 14:52 | 51.82824 | -2.29224 | 4998 ft | 102 kts | 211° |
| 2026-05-08 14:53 | 51.82258 | -2.29899 | 5324 ft | 101 kts | 211° |
| 2026-05-08 14:53 | 51.81699 | -2.30563 | 5641 ft | 101 kts | 211° |
| 2026-05-08 14:53 | 51.81131 | -2.31239 | 5973 ft | 101 kts | 211° |
| 2026-05-08 14:53 | 51.80575 | -2.31898 | 6284 ft | 101 kts | 212° |
| 2026-05-08 14:54 | 51.80004 | -2.32577 | 6611 ft | 101 kts | 212° |
| 2026-05-08 14:54 | 51.79437 | -2.33249 | 6920 ft | 102 kts | 213° |
| 2026-05-08 14:54 | 51.78862 | -2.33935 | 7247 ft | 103 kts | 213° |
| 2026-05-08 14:54 | 51.78289 | -2.34615 | 7555 ft | 104 kts | 213° |
| 2026-05-08 14:55 | 51.77710 | -2.35305 | 7868 ft | 105 kts | 213° |
| 2026-05-08 14:55 | 51.77087 | -2.36040 | 8023 ft | 119 kts | 213° |
| 2026-05-08 14:55 | 51.76368 | -2.36887 | 8047 ft | 138 kts | 213° |
| 2026-05-08 14:55 | 51.75553 | -2.37851 | 8038 ft | 147 kts | 213° |
| 2026-05-08 14:56 | 51.74733 | -2.38827 | 8037 ft | 148 kts | 213° |
| 2026-05-08 14:56 | 51.73894 | -2.39824 | 8032 ft | 150 kts | 213° |
| 2026-05-08 14:56 | 51.73056 | -2.40819 | 8033 ft | 150 kts | 213° |
| 2026-05-08 14:56 | 51.72212 | -2.41818 | 8030 ft | 151 kts | 213° |
| 2026-05-08 14:57 | 51.71369 | -2.42816 | 8030 ft | 150 kts | 213° |
| 2026-05-08 14:57 | 51.70524 | -2.43815 | 8032 ft | 150 kts | 213° |
| 2026-05-08 14:57 | 51.69720 | -2.44766 | 8029 ft | 150 kts | 213° |
| 2026-05-08 14:57 | 51.68880 | -2.45759 | 8029 ft | 150 kts | 213° |
| 2026-05-08 14:58 | 51.68042 | -2.46750 | 8030 ft | 150 kts | 213° |
| 2026-05-08 14:58 | 51.67200 | -2.47743 | 8027 ft | 150 kts | 214° |
| 2026-05-08 14:58 | 51.66367 | -2.48728 | 8029 ft | 150 kts | 214° |
| 2026-05-08 14:58 | 51.65519 | -2.49727 | 8029 ft | 150 kts | 213° |
| 2026-05-08 14:59 | 51.64743 | -2.50826 | 8005 ft | 153 kts | 235° |
| 2026-05-08 14:59 | 51.64588 | -2.54260 | 8027 ft | 157 kts | 271° |
| 2026-05-08 14:59 | 51.64700 | -2.56012 | 8028 ft | 157 kts | 272° |
| 2026-05-08 15:00 | 51.64820 | -2.57753 | 8028 ft | 158 kts | 272° |
| 2026-05-08 15:00 | 51.64941 | -2.59517 | 8029 ft | 158 kts | 272° |
| 2026-05-08 15:00 | 51.65062 | -2.61271 | 8029 ft | 158 kts | 272° |
| 2026-05-08 15:00 | 51.65182 | -2.63017 | 8028 ft | 158 kts | 272° |
| 2026-05-08 15:01 | 51.65303 | -2.64781 | 8026 ft | 158 kts | 272° |
| 2026-05-08 15:01 | 51.65422 | -2.66543 | 8024 ft | 157 kts | 271° |
| 2026-05-08 15:01 | 51.65541 | -2.68280 | 8023 ft | 157 kts | 271° |
| 2026-05-08 15:01 | 51.65660 | -2.70037 | 8023 ft | 157 kts | 272° |
| 2026-05-08 15:02 | 51.65778 | -2.71768 | 8023 ft | 157 kts | 271° |
| 2026-05-08 15:02 | 51.65897 | -2.73527 | 8023 ft | 157 kts | 271° |
| 2026-05-08 15:02 | 51.65751 | -2.75189 | 8042 ft | 151 kts | 238° |
| 2026-05-08 15:02 | 51.65198 | -2.76638 | 8031 ft | 151 kts | 232° |
| 2026-05-08 15:03 | 51.64603 | -2.78016 | 8028 ft | 151 kts | 231° |
| 2026-05-08 15:03 | 51.63994 | -2.79391 | 8028 ft | 150 kts | 230° |
| 2026-05-08 15:03 | 51.63386 | -2.80750 | 8030 ft | 150 kts | 230° |
| 2026-05-08 15:03 | 51.62766 | -2.82108 | 8032 ft | 150 kts | 226° |
| 2026-05-08 15:04 | 51.62060 | -2.83329 | 8032 ft | 149 kts | 227° |
| 2026-05-08 15:04 | 51.61427 | -2.84658 | 8041 ft | 149 kts | 229° |
| 2026-05-08 15:04 | 51.60802 | -2.85988 | 8039 ft | 150 kts | 229° |
| 2026-05-08 15:04 | 51.60188 | -2.87298 | 8039 ft | 150 kts | 229° |
| 2026-05-08 15:05 | 51.59580 | -2.88596 | 8040 ft | 150 kts | 229° |
| 2026-05-08 15:05 | 51.58951 | -2.89933 | 8012 ft | 151 kts | 229° |
| 2026-05-08 15:05 | 51.58311 | -2.91292 | 7986 ft | 152 kts | 229° |
| 2026-05-08 15:05 | 51.57682 | -2.92631 | 7982 ft | 151 kts | 229° |
| 2026-05-08 15:06 | 51.57045 | -2.93988 | 7883 ft | 154 kts | 229° |
| 2026-05-08 15:06 | 51.56407 | -2.95344 | 7694 ft | 152 kts | 229° |
| 2026-05-08 15:06 | 51.55780 | -2.96712 | 7512 ft | 150 kts | 230° |
| 2026-05-08 15:06 | 51.55181 | -2.98047 | 7336 ft | 148 kts | 230° |
| 2026-05-08 15:07 | 51.54579 | -2.99386 | 7152 ft | 147 kts | 230° |
| 2026-05-08 15:07 | 51.53985 | -3.00711 | 6974 ft | 146 kts | 230° |
| 2026-05-08 15:07 | 51.53389 | -3.02036 | 6791 ft | 145 kts | 231° |
| 2026-05-08 15:07 | 51.52804 | -3.03343 | 6604 ft | 145 kts | 230° |
| 2026-05-08 15:08 | 51.52215 | -3.04663 | 6420 ft | 145 kts | 231° |
| 2026-05-08 15:08 | 51.51831 | -3.05523 | 6299 ft | 144 kts | 230° |
| 2026-05-08 15:08 | 51.51049 | -3.07287 | 6065 ft | 144 kts | 230° |
| 2026-05-08 15:08 | 51.50473 | -3.08592 | 5883 ft | 144 kts | 230° |
| 2026-05-08 15:09 | 51.49893 | -3.09909 | 5687 ft | 145 kts | 231° |
| 2026-05-08 15:09 | 51.49307 | -3.11239 | 5508 ft | 144 kts | 230° |
| 2026-05-08 15:09 | 51.48730 | -3.12557 | 5329 ft | 144 kts | 231° |
| 2026-05-08 15:09 | 51.48158 | -3.13867 | 5153 ft | 144 kts | 230° |
| 2026-05-08 15:10 | 51.47589 | -3.15206 | 4970 ft | 145 kts | 235° |
| 2026-05-08 15:10 | 51.47074 | -3.16578 | 4797 ft | 144 kts | 232° |
| 2026-05-08 15:10 | 51.46518 | -3.17919 | 4670 ft | 144 kts | 231° |
| 2026-05-08 15:10 | 51.45939 | -3.19242 | 4545 ft | 146 kts | 230° |
| 2026-05-08 15:11 | 51.45340 | -3.20575 | 4419 ft | 147 kts | 229° |
| 2026-05-08 15:11 | 51.44740 | -3.21900 | 4293 ft | 148 kts | 229° |
| 2026-05-08 15:11 | 51.44152 | -3.23192 | 4171 ft | 148 kts | 229° |
| 2026-05-08 15:11 | 51.43649 | -3.24291 | 4028 ft | 151 kts | 229° |
| 2026-05-08 15:12 | 51.43028 | -3.25646 | 3855 ft | 153 kts | 229° |
| 2026-05-08 15:12 | 51.42394 | -3.27034 | 3675 ft | 150 kts | 230° |
| 2026-05-08 15:12 | 51.41808 | -3.28327 | 3485 ft | 140 kts | 229° |
| 2026-05-08 15:12 | 51.41245 | -3.29564 | 3301 ft | 135 kts | 229° |
| 2026-05-08 15:13 | 51.40698 | -3.30759 | 3119 ft | 130 kts | 229° |
| 2026-05-08 15:13 | 51.40157 | -3.31931 | 3005 ft | 131 kts | 229° |
| 2026-05-08 15:13 | 51.39628 | -3.33088 | 2985 ft | 127 kts | 229° |
| 2026-05-08 15:13 | 51.38979 | -3.33924 | 2994 ft | 118 kts | 188° |
| 2026-05-08 15:14 | 51.38215 | -3.33656 | 3001 ft | 115 kts | 140° |
| 2026-05-08 15:14 | 51.37748 | -3.32600 | 2995 ft | 118 kts | 120° |
| 2026-05-08 15:14 | 51.37369 | -3.31433 | 2987 ft | 119 kts | 118° |
| 2026-05-08 15:14 | 51.36995 | -3.30264 | 2985 ft | 119 kts | 118° |
| 2026-05-08 15:15 | 51.36619 | -3.29088 | 2984 ft | 119 kts | 118° |
| 2026-05-08 15:15 | 51.36253 | -3.27896 | 2984 ft | 120 kts | 109° |
| 2026-05-08 15:15 | 51.36401 | -3.26602 | 2998 ft | 124 kts | 57° |
| 2026-05-08 15:15 | 51.37141 | -3.25895 | 3001 ft | 130 kts | 9° |
| 2026-05-08 15:16 | 51.38004 | -3.26252 | 3002 ft | 132 kts | 321° |
| 2026-05-08 15:16 | 51.38457 | -3.27469 | 3002 ft | 128 kts | 273° |
| 2026-05-08 15:16 | 51.38466 | -3.28869 | 2990 ft | 128 kts | 266° |
| 2026-05-08 15:16 | 51.38570 | -3.30320 | 2983 ft | 130 kts | 278° |
| 2026-05-08 15:17 | 51.38828 | -3.31711 | 2982 ft | 131 kts | 286° |
| 2026-05-08 15:17 | 51.39166 | -3.33073 | 2983 ft | 132 kts | 290° |
| 2026-05-08 15:17 | 51.39621 | -3.34339 | 2976 ft | 134 kts | 310° |
| 2026-05-08 15:17 | 51.40065 | -3.35604 | 2990 ft | 131 kts | 287° |
| 2026-05-08 15:18 | 51.40415 | -3.36973 | 2985 ft | 132 kts | 289° |
| 2026-05-08 15:18 | 51.40790 | -3.38302 | 2983 ft | 132 kts | 291° |
| 2026-05-08 15:18 | 51.41189 | -3.39632 | 2983 ft | 133 kts | 292° |
| 2026-05-08 15:18 | 51.41602 | -3.40968 | 2984 ft | 133 kts | 293° |
| 2026-05-08 15:19 | 51.42020 | -3.42303 | 2984 ft | 133 kts | 293° |
| 2026-05-08 15:19 | 51.42267 | -3.43707 | 2988 ft | 131 kts | 277° |
| 2026-05-08 15:19 | 51.42424 | -3.45123 | 2972 ft | 125 kts | 275° |
| 2026-05-08 15:19 | 51.42616 | -3.46489 | 2693 ft | 130 kts | 294° |
| 2026-05-08 15:20 | 51.43270 | -3.47474 | 2409 ft | 133 kts | 334° |
| 2026-05-08 15:20 | 51.44059 | -3.48168 | 2225 ft | 125 kts | 308° |
| 2026-05-08 15:20 | 51.44474 | -3.48978 | 2221 ft | 121 kts | 120° |
| 2026-05-08 15:20 | 51.44161 | -3.47762 | 2205 ft | 122 kts | 104° |
| 2026-05-08 15:21 | 51.44772 | -3.50680 | 2198 ft | 105 kts | 125° |
| 2026-05-08 15:21 | 51.44622 | -3.50107 | 2117 ft | 106 kts | 116° |
| 2026-05-08 15:21 | 51.44298 | -3.49022 | 2013 ft | 111 kts | 117° |
| 2026-05-08 15:21 | 51.43953 | -3.47898 | 1893 ft | 115 kts | 117° |
| 2026-05-08 15:22 | 51.43587 | -3.46722 | 1754 ft | 119 kts | 117° |
| 2026-05-08 15:22 | 51.43234 | -3.45602 | 1609 ft | 121 kts | 117° |
| 2026-05-08 15:22 | 51.42853 | -3.44395 | 1453 ft | 124 kts | 117° |
| 2026-05-08 15:22 | 51.42459 | -3.43148 | 1288 ft | 126 kts | 116° |
| 2026-05-08 15:23 | 51.42063 | -3.41902 | 1117 ft | 122 kts | 118° |
| 2026-05-08 15:23 | 51.41712 | -3.40782 | 962 ft | 101 kts | 116° |
| 2026-05-08 15:23 | 51.41414 | -3.39859 | 847 ft | 92 kts | 116° |
| 2026-05-08 15:23 | 51.41121 | -3.38934 | 721 ft | 93 kts | 116° |
| 2026-05-08 15:24 | 51.40831 | -3.38008 | 599 ft | 95 kts | 117° |
| 2026-05-08 15:24 | 51.40611 | -3.37324 | 506 ft | 96 kts | 115° |
| 2026-05-08 15:25 | 51.40385 | -3.36590 | 410 ft | 98 kts | 116° |
| 2026-05-08 15:25 | 51.40076 | -3.35635 | 285 ft | 89 kts | 115° |
| 2026-05-08 15:25 | 51.39827 | -3.34854 | 222 ft | 66 kts | 117° |
| 2026-05-08 15:25 | 51.39582 | -3.34073 | 226 ft | 97 kts | 118° |
| 2026-05-08 15:26 | 51.39273 | -3.33059 | 436 ft | 107 kts | 114° |
| 2026-05-08 15:26 | 51.38969 | -3.31975 | 830 ft | 102 kts | 114° |
| 2026-05-08 15:26 | 51.38676 | -3.30988 | 1223 ft | 96 kts | 116° |
| 2026-05-08 15:26 | 51.38397 | -3.30028 | 1564 ft | 96 kts | 116° |
| 2026-05-08 15:27 | 51.38131 | -3.29065 | 1897 ft | 95 kts | 115° |
| 2026-05-08 15:27 | 51.38034 | -3.28028 | 2216 ft | 101 kts | 77° |
| 2026-05-08 15:27 | 51.38337 | -3.27007 | 2544 ft | 103 kts | 64° |
| 2026-05-08 15:27 | 51.38713 | -3.26033 | 2863 ft | 104 kts | 60° |
| 2026-05-08 15:28 | 51.39120 | -3.25071 | 3193 ft | 105 kts | 58° |
| 2026-05-08 15:28 | 51.39541 | -3.24125 | 3511 ft | 106 kts | 57° |
| 2026-05-08 15:28 | 51.39979 | -3.23167 | 3831 ft | 107 kts | 57° |
| 2026-05-08 15:28 | 51.40423 | -3.22212 | 4147 ft | 108 kts | 57° |